sensor_id;sensor_type;location;lat;lon;timestamp;temperature;humidity
20827;DHT22;10574;52.508;13.236;2023-06-10T00:02:23;15.20;99.90
20827;DHT22;10574;52.508;13.236;2023-06-10T00:04:50;15.10;99.90
20827;DHT22;10574;52.508;13.236;2023-06-10T00:07:19;15.10;99.90
20827;DHT22;10574;52.508;13.236;2023-06-10T00:09:47;15.20;99.90
20827;DHT22;10574;52.508;13.236;2023-06-10T00:12:15;15.20;99.90
20827;DHT22;10574;52.508;13.236;2023-06-10T00:14:43;15.20;99.90
20827;DHT22;10574;52.508;13.236;2023-06-10T00:17:11;15.10;99.90
20827;DHT22;10574;52.508;13.236;2023-06-10T00:19:39;15.10;99.90
20827;DHT22;10574;52.508;13.236;2023-06-10T00:22:08;15.10;99.90
20827;DHT22;10574;52.508;13.236;2023-06-10T00:24:37;15.00;99.90
20827;DHT22;10574;52.508;13.236;2023-06-10T00:27:06;15.10;99.90
20827;DHT22;10574;52.508;13.236;2023-06-10T00:29:33;15.10;99.90
20827;DHT22;10574;52.508;13.236;2023-06-10T00:32:01;15.10;99.90
20827;DHT22;10574;52.508;13.236;2023-06-10T00:34:28;15.00;99.90
20827;DHT22;10574;52.508;13.236;2023-06-10T00:36:56;15.10;99.90
20827;DHT22;10574;52.508;13.236;2023-06-10T00:39:24;15.10;99.90
20827;DHT22;10574;52.508;13.236;2023-06-10T00:41:51;15.00;99.90
20827;DHT22;10574;52.508;13.236;2023-06-10T00:44:19;15.10;99.90
20827;DHT22;10574;52.508;13.236;2023-06-10T00:46:47;15.00;99.90
20827;DHT22;10574;52.508;13.236;2023-06-10T00:49:16;15.10;99.90
20827;DHT22;10574;52.508;13.236;2023-06-10T00:51:44;15.00;99.90
20827;DHT22;10574;52.508;13.236;2023-06-10T00:54:12;14.90;99.90
20827;DHT22;10574;52.508;13.236;2023-06-10T00:56:40;14.80;99.90
20827;DHT22;10574;52.508;13.236;2023-06-10T00:59:10;14.80;99.90
20827;DHT22;10574;52.508;13.236;2023-06-10T01:01:38;14.80;99.90
20827;DHT22;10574;52.508;13.236;2023-06-10T01:04:05;14.80;99.90
20827;DHT22;10574;52.508;13.236;2023-06-10T01:07:42;14.90;99.90
20827;DHT22;10574;52.508;13.236;2023-06-10T01:12:17;14.90;99.90
20827;DHT22;10574;52.508;13.236;2023-06-10T01:14:45;14.90;99.90
20827;DHT22;10574;52.508;13.236;2023-06-10T01:17:13;14.70;99.90
20827;DHT22;10574;52.508;13.236;2023-06-10T01:19:43;14.70;99.90
20827;DHT22;10574;52.508;13.236;2023-06-10T01:22:11;14.70;99.90
20827;DHT22;10574;52.508;13.236;2023-06-10T01:24:40;14.70;99.90
20827;DHT22;10574;52.508;13.236;2023-06-10T01:27:11;14.70;99.90
20827;DHT22;10574;52.508;13.236;2023-06-10T01:29:41;14.70;99.90
20827;DHT22;10574;52.508;13.236;2023-06-10T01:32:21;14.60;99.90
20827;DHT22;10574;52.508;13.236;2023-06-10T01:34:49;14.60;99.90
20827;DHT22;10574;52.508;13.236;2023-06-10T01:37:19;14.60;99.90
20827;DHT22;10574;52.508;13.236;2023-06-10T01:39:49;14.70;99.90
20827;DHT22;10574;52.508;13.236;2023-06-10T01:42:17;14.60;99.90
20827;DHT22;10574;52.508;13.236;2023-06-10T01:44:45;14.60;99.90
20827;DHT22;10574;52.508;13.236;2023-06-10T01:47:13;14.50;99.90
20827;DHT22;10574;52.508;13.236;2023-06-10T01:49:40;14.40;99.90
20827;DHT22;10574;52.508;13.236;2023-06-10T01:52:08;14.40;99.90
20827;DHT22;10574;52.508;13.236;2023-06-10T01:54:36;14.40;99.90
20827;DHT22;10574;52.508;13.236;2023-06-10T01:57:04;14.30;99.90
20827;DHT22;10574;52.508;13.236;2023-06-10T01:59:32;14.40;99.90
20827;DHT22;10574;52.508;13.236;2023-06-10T02:02:00;14.40;99.90
20827;DHT22;10574;52.508;13.236;2023-06-10T02:04:28;14.40;99.90
20827;DHT22;10574;52.508;13.236;2023-06-10T02:06:55;14.40;99.90
20827;DHT22;10574;52.508;13.236;2023-06-10T02:09:23;14.30;99.90
20827;DHT22;10574;52.508;13.236;2023-06-10T02:11:51;14.30;99.90
20827;DHT22;10574;52.508;13.236;2023-06-10T02:14:18;14.30;99.90
20827;DHT22;10574;52.508;13.236;2023-06-10T02:16:46;14.30;99.90
20827;DHT22;10574;52.508;13.236;2023-06-10T02:19:14;14.30;99.90
20827;DHT22;10574;52.508;13.236;2023-06-10T02:21:42;14.30;99.90
20827;DHT22;10574;52.508;13.236;2023-06-10T02:24:10;14.30;99.90
20827;DHT22;10574;52.508;13.236;2023-06-10T02:26:37;14.20;99.90
20827;DHT22;10574;52.508;13.236;2023-06-10T02:29:05;14.30;99.90
20827;DHT22;10574;52.508;13.236;2023-06-10T02:31:33;14.30;99.90
20827;DHT22;10574;52.508;13.236;2023-06-10T02:34:02;14.20;99.90
20827;DHT22;10574;52.508;13.236;2023-06-10T02:36:30;14.10;99.90
20827;DHT22;10574;52.508;13.236;2023-06-10T02:38:58;14.10;99.90
20827;DHT22;10574;52.508;13.236;2023-06-10T02:41:25;14.10;99.90
20827;DHT22;10574;52.508;13.236;2023-06-10T02:43:53;14.10;99.90
20827;DHT22;10574;52.508;13.236;2023-06-10T02:46:21;14.10;99.90
20827;DHT22;10574;52.508;13.236;2023-06-10T02:48:48;14.00;99.90
20827;DHT22;10574;52.508;13.236;2023-06-10T02:51:18;14.00;99.90
20827;DHT22;10574;52.508;13.236;2023-06-10T02:53:45;14.00;99.90
20827;DHT22;10574;52.508;13.236;2023-06-10T02:56:15;14.00;99.90
20827;DHT22;10574;52.508;13.236;2023-06-10T02:58:43;14.00;99.90
20827;DHT22;10574;52.508;13.236;2023-06-10T03:01:12;14.00;99.90
20827;DHT22;10574;52.508;13.236;2023-06-10T03:03:40;14.00;99.90
20827;DHT22;10574;52.508;13.236;2023-06-10T03:06:10;14.00;99.90
20827;DHT22;10574;52.508;13.236;2023-06-10T03:08:39;14.10;99.90
20827;DHT22;10574;52.508;13.236;2023-06-10T03:11:07;14.00;99.90
20827;DHT22;10574;52.508;13.236;2023-06-10T03:13:35;14.00;99.90
20827;DHT22;10574;52.508;13.236;2023-06-10T03:16:02;14.00;99.90
20827;DHT22;10574;52.508;13.236;2023-06-10T03:18:31;14.00;99.90
20827;DHT22;10574;52.508;13.236;2023-06-10T03:20:58;14.00;99.90
20827;DHT22;10574;52.508;13.236;2023-06-10T03:23:26;14.00;99.90
20827;DHT22;10574;52.508;13.236;2023-06-10T03:25:54;14.00;99.90
20827;DHT22;10574;52.508;13.236;2023-06-10T03:28:22;14.00;99.90
20827;DHT22;10574;52.508;13.236;2023-06-10T03:30:49;14.00;99.90
20827;DHT22;10574;52.508;13.236;2023-06-10T03:33:18;14.00;99.90
20827;DHT22;10574;52.508;13.236;2023-06-10T03:35:46;14.00;99.90
20827;DHT22;10574;52.508;13.236;2023-06-10T03:38:14;14.00;99.90
20827;DHT22;10574;52.508;13.236;2023-06-10T03:40:41;14.00;99.90
20827;DHT22;10574;52.508;13.236;2023-06-10T03:43:09;14.00;99.90
20827;DHT22;10574;52.508;13.236;2023-06-10T03:45:37;14.00;99.90
20827;DHT22;10574;52.508;13.236;2023-06-10T03:48:05;14.00;99.90
20827;DHT22;10574;52.508;13.236;2023-06-10T03:50:35;14.10;99.90
20827;DHT22;10574;52.508;13.236;2023-06-10T03:53:02;14.10;99.90
20827;DHT22;10574;52.508;13.236;2023-06-10T03:55:30;14.20;99.90
20827;DHT22;10574;52.508;13.236;2023-06-10T03:57:58;14.20;99.90
20827;DHT22;10574;52.508;13.236;2023-06-10T04:00:25;14.20;99.90
20827;DHT22;10574;52.508;13.236;2023-06-10T04:02:53;14.20;99.90
20827;DHT22;10574;52.508;13.236;2023-06-10T04:05:22;14.20;99.90
20827;DHT22;10574;52.508;13.236;2023-06-10T04:07:50;14.10;99.90
20827;DHT22;10574;52.508;13.236;2023-06-10T04:10:18;14.10;99.90
20827;DHT22;10574;52.508;13.236;2023-06-10T04:12:45;14.20;99.90
20827;DHT22;10574;52.508;13.236;2023-06-10T04:15:13;14.20;99.90
20827;DHT22;10574;52.508;13.236;2023-06-10T04:17:41;14.30;99.90
20827;DHT22;10574;52.508;13.236;2023-06-10T04:20:09;14.20;99.90
20827;DHT22;10574;52.508;13.236;2023-06-10T04:22:37;14.20;99.90
20827;DHT22;10574;52.508;13.236;2023-06-10T04:25:04;14.30;99.90
20827;DHT22;10574;52.508;13.236;2023-06-10T04:27:34;14.30;99.90
20827;DHT22;10574;52.508;13.236;2023-06-10T04:30:03;14.30;99.90
20827;DHT22;10574;52.508;13.236;2023-06-10T04:32:30;14.40;99.90
20827;DHT22;10574;52.508;13.236;2023-06-10T04:34:59;14.60;99.90
20827;DHT22;10574;52.508;13.236;2023-06-10T04:37:27;14.70;99.90
20827;DHT22;10574;52.508;13.236;2023-06-10T04:39:55;14.90;99.90
20827;DHT22;10574;52.508;13.236;2023-06-10T04:42:23;15.10;99.90
20827;DHT22;10574;52.508;13.236;2023-06-10T04:44:51;15.30;99.90
20827;DHT22;10574;52.508;13.236;2023-06-10T04:47:18;15.20;99.90
20827;DHT22;10574;52.508;13.236;2023-06-10T04:49:46;15.20;99.90
20827;DHT22;10574;52.508;13.236;2023-06-10T04:52:14;15.10;99.90
20827;DHT22;10574;52.508;13.236;2023-06-10T04:54:41;15.30;99.90
20827;DHT22;10574;52.508;13.236;2023-06-10T04:57:09;15.50;99.90
20827;DHT22;10574;52.508;13.236;2023-06-10T04:59:38;15.60;99.90
20827;DHT22;10574;52.508;13.236;2023-06-10T05:02:05;15.60;99.90
20827;DHT22;10574;52.508;13.236;2023-06-10T05:04:33;15.60;99.90
20827;DHT22;10574;52.508;13.236;2023-06-10T05:07:01;16.00;99.90
20827;DHT22;10574;52.508;13.236;2023-06-10T05:09:28;15.90;99.90
20827;DHT22;10574;52.508;13.236;2023-06-10T05:11:56;15.80;99.90
20827;DHT22;10574;52.508;13.236;2023-06-10T05:14:24;15.90;99.90
20827;DHT22;10574;52.508;13.236;2023-06-10T05:16:52;15.80;99.90
20827;DHT22;10574;52.508;13.236;2023-06-10T05:19:19;15.80;99.90
20827;DHT22;10574;52.508;13.236;2023-06-10T05:21:47;15.80;99.90
20827;DHT22;10574;52.508;13.236;2023-06-10T05:24:15;15.70;99.90
20827;DHT22;10574;52.508;13.236;2023-06-10T05:26:43;15.70;99.90
20827;DHT22;10574;52.508;13.236;2023-06-10T05:29:10;15.70;99.90
20827;DHT22;10574;52.508;13.236;2023-06-10T05:31:38;15.80;99.90
20827;DHT22;10574;52.508;13.236;2023-06-10T05:34:06;15.70;99.90
20827;DHT22;10574;52.508;13.236;2023-06-10T05:36:33;15.60;99.90
20827;DHT22;10574;52.508;13.236;2023-06-10T05:39:01;15.70;99.90
20827;DHT22;10574;52.508;13.236;2023-06-10T05:41:29;15.60;99.90
20827;DHT22;10574;52.508;13.236;2023-06-10T05:43:57;15.70;99.90
20827;DHT22;10574;52.508;13.236;2023-06-10T05:46:25;15.60;99.90
20827;DHT22;10574;52.508;13.236;2023-06-10T05:48:52;15.70;99.90
20827;DHT22;10574;52.508;13.236;2023-06-10T05:51:20;15.80;99.90
20827;DHT22;10574;52.508;13.236;2023-06-10T05:53:47;15.80;99.90
20827;DHT22;10574;52.508;13.236;2023-06-10T05:56:15;15.70;99.90
20827;DHT22;10574;52.508;13.236;2023-06-10T05:58:43;15.80;99.90
20827;DHT22;10574;52.508;13.236;2023-06-10T06:01:10;15.90;99.90
20827;DHT22;10574;52.508;13.236;2023-06-10T06:03:38;16.20;99.90
20827;DHT22;10574;52.508;13.236;2023-06-10T06:06:06;16.50;99.90
20827;DHT22;10574;52.508;13.236;2023-06-10T06:08:33;16.50;99.90
20827;DHT22;10574;52.508;13.236;2023-06-10T06:11:01;16.70;99.90
20827;DHT22;10574;52.508;13.236;2023-06-10T06:13:29;16.80;99.90
20827;DHT22;10574;52.508;13.236;2023-06-10T06:15:56;17.20;99.90
20827;DHT22;10574;52.508;13.236;2023-06-10T06:18:24;17.40;99.90
20827;DHT22;10574;52.508;13.236;2023-06-10T06:20:51;17.90;99.90
20827;DHT22;10574;52.508;13.236;2023-06-10T06:23:19;18.00;99.90
20827;DHT22;10574;52.508;13.236;2023-06-10T06:25:46;17.80;99.90
20827;DHT22;10574;52.508;13.236;2023-06-10T06:28:14;17.60;99.90
20827;DHT22;10574;52.508;13.236;2023-06-10T06:30:42;17.40;99.90
20827;DHT22;10574;52.508;13.236;2023-06-10T06:33:09;17.60;99.90
20827;DHT22;10574;52.508;13.236;2023-06-10T06:35:37;17.70;99.90
20827;DHT22;10574;52.508;13.236;2023-06-10T06:38:04;17.60;99.90
20827;DHT22;10574;52.508;13.236;2023-06-10T06:40:32;17.60;99.90
20827;DHT22;10574;52.508;13.236;2023-06-10T06:43:00;17.70;99.90
20827;DHT22;10574;52.508;13.236;2023-06-10T06:45:27;18.00;99.90
20827;DHT22;10574;52.508;13.236;2023-06-10T06:47:55;18.30;99.90
20827;DHT22;10574;52.508;13.236;2023-06-10T06:50:23;18.30;99.90
20827;DHT22;10574;52.508;13.236;2023-06-10T06:52:50;18.60;99.90
20827;DHT22;10574;52.508;13.236;2023-06-10T06:55:18;18.80;99.90
20827;DHT22;10574;52.508;13.236;2023-06-10T06:57:46;19.40;99.90
20827;DHT22;10574;52.508;13.236;2023-06-10T07:00:14;19.80;99.90
20827;DHT22;10574;52.508;13.236;2023-06-10T07:02:41;19.60;99.90
20827;DHT22;10574;52.508;13.236;2023-06-10T07:05:09;19.30;99.90
20827;DHT22;10574;52.508;13.236;2023-06-10T07:07:37;19.50;99.90
20827;DHT22;10574;52.508;13.236;2023-06-10T07:10:05;19.60;99.90
20827;DHT22;10574;52.508;13.236;2023-06-10T07:12:32;19.40;99.90
20827;DHT22;10574;52.508;13.236;2023-06-10T07:15:00;19.40;99.90
20827;DHT22;10574;52.508;13.236;2023-06-10T07:17:27;19.10;99.90
20827;DHT22;10574;52.508;13.236;2023-06-10T07:19:55;19.10;99.90
20827;DHT22;10574;52.508;13.236;2023-06-10T07:22:24;19.10;99.90
20827;DHT22;10574;52.508;13.236;2023-06-10T07:24:52;19.20;99.90
20827;DHT22;10574;52.508;13.236;2023-06-10T07:27:21;19.10;99.90
20827;DHT22;10574;52.508;13.236;2023-06-10T07:29:49;19.00;99.90
20827;DHT22;10574;52.508;13.236;2023-06-10T07:32:16;19.30;99.90
20827;DHT22;10574;52.508;13.236;2023-06-10T07:34:44;19.80;99.90
20827;DHT22;10574;52.508;13.236;2023-06-10T07:37:11;19.70;99.90
20827;DHT22;10574;52.508;13.236;2023-06-10T07:39:39;20.10;99.90
20827;DHT22;10574;52.508;13.236;2023-06-10T07:42:07;20.50;99.90
20827;DHT22;10574;52.508;13.236;2023-06-10T07:44:35;21.10;99.90
20827;DHT22;10574;52.508;13.236;2023-06-10T07:47:02;20.90;99.90
20827;DHT22;10574;52.508;13.236;2023-06-10T07:49:30;20.50;99.90
20827;DHT22;10574;52.508;13.236;2023-06-10T07:51:58;20.80;99.90
20827;DHT22;10574;52.508;13.236;2023-06-10T07:54:25;21.30;99.90
20827;DHT22;10574;52.508;13.236;2023-06-10T07:56:53;21.40;99.90
20827;DHT22;10574;52.508;13.236;2023-06-10T07:59:21;21.20;99.90
20827;DHT22;10574;52.508;13.236;2023-06-10T08:01:48;21.30;99.90
20827;DHT22;10574;52.508;13.236;2023-06-10T08:04:16;21.40;99.90
20827;DHT22;10574;52.508;13.236;2023-06-10T08:06:43;21.40;99.90
20827;DHT22;10574;52.508;13.236;2023-06-10T08:09:11;21.60;99.90
20827;DHT22;10574;52.508;13.236;2023-06-10T08:11:38;22.20;99.90
20827;DHT22;10574;52.508;13.236;2023-06-10T08:14:06;22.30;99.90
20827;DHT22;10574;52.508;13.236;2023-06-10T08:16:34;22.70;99.90
20827;DHT22;10574;52.508;13.236;2023-06-10T08:19:01;23.00;99.90
20827;DHT22;10574;52.508;13.236;2023-06-10T08:21:29;22.50;99.90
20827;DHT22;10574;52.508;13.236;2023-06-10T08:23:56;22.70;99.90
20827;DHT22;10574;52.508;13.236;2023-06-10T08:26:24;22.30;99.90
20827;DHT22;10574;52.508;13.236;2023-06-10T08:28:52;22.40;99.90
20827;DHT22;10574;52.508;13.236;2023-06-10T08:31:20;22.20;99.90
20827;DHT22;10574;52.508;13.236;2023-06-10T08:33:48;22.40;99.90
20827;DHT22;10574;52.508;13.236;2023-06-10T08:36:16;22.60;99.90
20827;DHT22;10574;52.508;13.236;2023-06-10T08:38:43;22.80;99.90
20827;DHT22;10574;52.508;13.236;2023-06-10T08:41:14;23.20;99.90
20827;DHT22;10574;52.508;13.236;2023-06-10T08:43:59;23.50;99.90
20827;DHT22;10574;52.508;13.236;2023-06-10T08:46:19;23.40;99.90
20827;DHT22;10574;52.508;13.236;2023-06-10T08:48:49;23.00;99.90
20827;DHT22;10574;52.508;13.236;2023-06-10T08:51:18;23.10;99.90
20827;DHT22;10574;52.508;13.236;2023-06-10T08:53:53;23.10;99.90
20827;DHT22;10574;52.508;13.236;2023-06-10T08:56:21;23.20;99.90
20827;DHT22;10574;52.508;13.236;2023-06-10T08:58:50;23.10;99.90
20827;DHT22;10574;52.508;13.236;2023-06-10T09:01:19;23.00;99.90
20827;DHT22;10574;52.508;13.236;2023-06-10T09:03:47;23.20;99.90
20827;DHT22;10574;52.508;13.236;2023-06-10T09:06:15;23.30;99.90
20827;DHT22;10574;52.508;13.236;2023-06-10T09:08:43;23.80;99.90
20827;DHT22;10574;52.508;13.236;2023-06-10T09:11:11;23.90;99.90
20827;DHT22;10574;52.508;13.236;2023-06-10T09:13:39;24.10;99.90
20827;DHT22;10574;52.508;13.236;2023-06-10T09:16:06;24.00;99.90
20827;DHT22;10574;52.508;13.236;2023-06-10T09:18:34;24.10;99.90
20827;DHT22;10574;52.508;13.236;2023-06-10T09:21:02;24.10;99.90
20827;DHT22;10574;52.508;13.236;2023-06-10T09:23:29;24.40;99.90
20827;DHT22;10574;52.508;13.236;2023-06-10T09:25:58;24.50;99.90
20827;DHT22;10574;52.508;13.236;2023-06-10T09:28:26;24.40;99.90
20827;DHT22;10574;52.508;13.236;2023-06-10T09:31:04;24.00;99.90
20827;DHT22;10574;52.508;13.236;2023-06-10T09:33:32;23.60;99.90
20827;DHT22;10574;52.508;13.236;2023-06-10T09:36:01;23.60;99.90
20827;DHT22;10574;52.508;13.236;2023-06-10T09:38:31;23.40;99.90
20827;DHT22;10574;52.508;13.236;2023-06-10T09:40:59;23.20;99.90
20827;DHT22;10574;52.508;13.236;2023-06-10T09:43:44;22.80;99.90
20827;DHT22;10574;52.508;13.236;2023-06-10T09:46:19;22.70;99.90
20827;DHT22;10574;52.508;13.236;2023-06-10T09:48:47;22.90;99.90
20827;DHT22;10574;52.508;13.236;2023-06-10T09:51:16;23.00;99.90
20827;DHT22;10574;52.508;13.236;2023-06-10T09:53:48;23.00;99.90
20827;DHT22;10574;52.508;13.236;2023-06-10T09:56:16;22.70;99.90
20827;DHT22;10574;52.508;13.236;2023-06-10T09:58:45;22.80;99.90
20827;DHT22;10574;52.508;13.236;2023-06-10T10:01:14;22.50;99.90
20827;DHT22;10574;52.508;13.236;2023-06-10T10:03:52;22.50;99.90
20827;DHT22;10574;52.508;13.236;2023-06-10T10:06:20;22.50;99.90
20827;DHT22;10574;52.508;13.236;2023-06-10T10:08:49;22.40;99.90
20827;DHT22;10574;52.508;13.236;2023-06-10T10:11:19;22.10;99.90
20827;DHT22;10574;52.508;13.236;2023-06-10T10:13:51;22.00;99.90
20827;DHT22;10574;52.508;13.236;2023-06-10T10:16:21;22.00;99.90
20827;DHT22;10574;52.508;13.236;2023-06-10T10:18:54;22.20;99.90
20827;DHT22;10574;52.508;13.236;2023-06-10T10:21:24;22.20;99.90
20827;DHT22;10574;52.508;13.236;2023-06-10T10:26:26;22.40;99.90
20827;DHT22;10574;52.508;13.236;2023-06-10T10:29:07;22.30;99.90
20827;DHT22;10574;52.508;13.236;2023-06-10T10:31:35;22.20;99.90
20827;DHT22;10574;52.508;13.236;2023-06-10T10:34:06;22.10;99.90
20827;DHT22;10574;52.508;13.236;2023-06-10T10:36:35;22.20;99.90
20827;DHT22;10574;52.508;13.236;2023-06-10T10:39:04;22.30;99.90
20827;DHT22;10574;52.508;13.236;2023-06-10T10:41:33;22.40;99.90
20827;DHT22;10574;52.508;13.236;2023-06-10T10:44:01;22.40;99.90
20827;DHT22;10574;52.508;13.236;2023-06-10T10:46:31;22.40;99.90
20827;DHT22;10574;52.508;13.236;2023-06-10T10:49:02;22.30;99.90
20827;DHT22;10574;52.508;13.236;2023-06-10T10:51:33;22.20;99.90
20827;DHT22;10574;52.508;13.236;2023-06-10T10:54:13;22.10;99.90
20827;DHT22;10574;52.508;13.236;2023-06-10T11:02:32;22.00;99.90
20827;DHT22;10574;52.508;13.236;2023-06-10T11:04:49;21.90;99.90
20827;DHT22;10574;52.508;13.236;2023-06-10T11:07:24;22.00;99.90
20827;DHT22;10574;52.508;13.236;2023-06-10T11:10:05;21.90;99.90
20827;DHT22;10574;52.508;13.236;2023-06-10T11:12:51;21.90;99.90
20827;DHT22;10574;52.508;13.236;2023-06-10T11:15:25;22.00;99.90
20827;DHT22;10574;52.508;13.236;2023-06-10T11:18:12;22.30;99.90
20827;DHT22;10574;52.508;13.236;2023-06-10T11:31:27;22.50;99.90
20827;DHT22;10574;52.508;13.236;2023-06-10T11:34:00;22.90;99.90
20827;DHT22;10574;52.508;13.236;2023-06-10T11:36:29;23.00;99.90
20827;DHT22;10574;52.508;13.236;2023-06-10T11:38:59;23.10;99.90
20827;DHT22;10574;52.508;13.236;2023-06-10T11:41:27;23.10;99.90
20827;DHT22;10574;52.508;13.236;2023-06-10T11:44:17;23.20;99.90
20827;DHT22;10574;52.508;13.236;2023-06-10T11:46:25;23.30;99.90
20827;DHT22;10574;52.508;13.236;2023-06-10T11:48:57;23.30;99.90
20827;DHT22;10574;52.508;13.236;2023-06-10T11:51:31;23.40;99.90
20827;DHT22;10574;52.508;13.236;2023-06-10T11:53:58;23.80;99.90
20827;DHT22;10574;52.508;13.236;2023-06-10T11:56:27;24.00;99.90
20827;DHT22;10574;52.508;13.236;2023-06-10T11:59:03;24.20;99.90
20827;DHT22;10574;52.508;13.236;2023-06-10T12:01:35;24.50;99.90
20827;DHT22;10574;52.508;13.236;2023-06-10T12:04:12;24.50;99.90
20827;DHT22;10574;52.508;13.236;2023-06-10T12:06:45;24.40;99.90
20827;DHT22;10574;52.508;13.236;2023-06-10T12:09:20;24.10;99.90
20827;DHT22;10574;52.508;13.236;2023-06-10T12:11:49;23.80;99.90
20827;DHT22;10574;52.508;13.236;2023-06-10T12:17:04;23.10;99.90
20827;DHT22;10574;52.508;13.236;2023-06-10T12:19:37;22.90;99.90
20827;DHT22;10574;52.508;13.236;2023-06-10T12:22:02;22.90;99.90
20827;DHT22;10574;52.508;13.236;2023-06-10T12:24:30;23.00;99.90
20827;DHT22;10574;52.508;13.236;2023-06-10T12:26:57;23.30;99.90
20827;DHT22;10574;52.508;13.236;2023-06-10T12:29:25;23.70;99.90
20827;DHT22;10574;52.508;13.236;2023-06-10T12:31:55;23.90;99.90
20827;DHT22;10574;52.508;13.236;2023-06-10T12:34:37;23.80;99.90
20827;DHT22;10574;52.508;13.236;2023-06-10T12:37:09;24.00;99.90
20827;DHT22;10574;52.508;13.236;2023-06-10T12:39:35;24.10;99.90
20827;DHT22;10574;52.508;13.236;2023-06-10T12:42:03;24.50;99.90
20827;DHT22;10574;52.508;13.236;2023-06-10T12:44:32;25.00;99.90
20827;DHT22;10574;52.508;13.236;2023-06-10T12:47:06;25.60;99.90
20827;DHT22;10574;52.508;13.236;2023-06-10T12:49:30;26.00;99.90
20827;DHT22;10574;52.508;13.236;2023-06-10T12:51:58;25.80;99.90
20827;DHT22;10574;52.508;13.236;2023-06-10T12:54:26;25.80;99.90
20827;DHT22;10574;52.508;13.236;2023-06-10T12:56:53;26.10;99.60
20827;DHT22;10574;52.508;13.236;2023-06-10T12:59:21;26.20;99.20
20827;DHT22;10574;52.508;13.236;2023-06-10T13:01:54;26.20;97.60
20827;DHT22;10574;52.508;13.236;2023-06-10T13:04:22;26.20;98.00
20827;DHT22;10574;52.508;13.236;2023-06-10T13:06:49;26.40;97.50
20827;DHT22;10574;52.508;13.236;2023-06-10T13:09:17;26.80;96.80
20827;DHT22;10574;52.508;13.236;2023-06-10T13:11:45;27.00;97.20
20827;DHT22;10574;52.508;13.236;2023-06-10T13:14:13;27.20;96.20
20827;DHT22;10574;52.508;13.236;2023-06-10T13:16:41;27.10;97.20
20827;DHT22;10574;52.508;13.236;2023-06-10T13:19:10;27.20;96.70
20827;DHT22;10574;52.508;13.236;2023-06-10T13:21:38;26.90;97.50
20827;DHT22;10574;52.508;13.236;2023-06-10T13:24:05;26.90;98.30
20827;DHT22;10574;52.508;13.236;2023-06-10T13:26:33;26.80;98.70
20827;DHT22;10574;52.508;13.236;2023-06-10T13:29:01;27.00;98.70
20827;DHT22;10574;52.508;13.236;2023-06-10T13:31:29;27.20;98.90
20827;DHT22;10574;52.508;13.236;2023-06-10T13:33:56;26.80;99.40
20827;DHT22;10574;52.508;13.236;2023-06-10T13:36:24;26.90;99.90
20827;DHT22;10574;52.508;13.236;2023-06-10T13:38:52;26.70;99.90
20827;DHT22;10574;52.508;13.236;2023-06-10T13:41:20;26.80;99.90
20827;DHT22;10574;52.508;13.236;2023-06-10T13:43:47;27.00;99.70
20827;DHT22;10574;52.508;13.236;2023-06-10T13:46:15;27.10;99.30
20827;DHT22;10574;52.508;13.236;2023-06-10T13:48:43;27.10;99.20
20827;DHT22;10574;52.508;13.236;2023-06-10T13:51:10;27.40;98.00
20827;DHT22;10574;52.508;13.236;2023-06-10T13:53:38;27.30;98.20
20827;DHT22;10574;52.508;13.236;2023-06-10T13:56:06;27.50;96.30
20827;DHT22;10574;52.508;13.236;2023-06-10T13:58:34;27.50;96.30
20827;DHT22;10574;52.508;13.236;2023-06-10T14:01:03;27.10;96.60
20827;DHT22;10574;52.508;13.236;2023-06-10T14:03:30;27.50;96.10
20827;DHT22;10574;52.508;13.236;2023-06-10T14:05:58;27.60;94.40
20827;DHT22;10574;52.508;13.236;2023-06-10T14:08:26;27.80;93.80
20827;DHT22;10574;52.508;13.236;2023-06-10T14:10:54;28.10;93.70
20827;DHT22;10574;52.508;13.236;2023-06-10T14:13:21;27.90;93.10
20827;DHT22;10574;52.508;13.236;2023-06-10T14:15:49;27.80;93.60
20827;DHT22;10574;52.508;13.236;2023-06-10T14:18:17;27.30;94.80
20827;DHT22;10574;52.508;13.236;2023-06-10T14:20:44;27.30;94.70
20827;DHT22;10574;52.508;13.236;2023-06-10T14:23:12;27.70;94.20
20827;DHT22;10574;52.508;13.236;2023-06-10T14:25:40;27.70;94.40
20827;DHT22;10574;52.508;13.236;2023-06-10T14:28:07;28.00;93.50
20827;DHT22;10574;52.508;13.236;2023-06-10T14:30:35;27.70;93.40
20827;DHT22;10574;52.508;13.236;2023-06-10T14:33:03;27.40;94.00
20827;DHT22;10574;52.508;13.236;2023-06-10T14:35:30;27.70;94.30
20827;DHT22;10574;52.508;13.236;2023-06-10T14:37:58;27.80;94.40
20827;DHT22;10574;52.508;13.236;2023-06-10T14:40:26;27.90;93.40
20827;DHT22;10574;52.508;13.236;2023-06-10T14:42:55;27.30;93.70
20827;DHT22;10574;52.508;13.236;2023-06-10T14:45:23;27.10;93.90
20827;DHT22;10574;52.508;13.236;2023-06-10T14:47:51;26.90;91.80
20827;DHT22;10574;52.508;13.236;2023-06-10T14:50:19;27.10;91.20
20827;DHT22;10574;52.508;13.236;2023-06-10T14:52:47;27.50;89.80
20827;DHT22;10574;52.508;13.236;2023-06-10T14:55:14;27.80;81.70
20827;DHT22;10574;52.508;13.236;2023-06-10T14:57:42;27.70;81.30
20827;DHT22;10574;52.508;13.236;2023-06-10T15:00:11;27.90;79.30
20827;DHT22;10574;52.508;13.236;2023-06-10T15:02:40;28.00;79.80
20827;DHT22;10574;52.508;13.236;2023-06-10T15:05:08;28.10;80.80
20827;DHT22;10574;52.508;13.236;2023-06-10T15:07:36;28.20;81.50
20827;DHT22;10574;52.508;13.236;2023-06-10T15:10:04;28.10;81.30
20827;DHT22;10574;52.508;13.236;2023-06-10T15:12:31;28.30;81.60
20827;DHT22;10574;52.508;13.236;2023-06-10T15:14:59;28.20;81.10
20827;DHT22;10574;52.508;13.236;2023-06-10T15:17:27;28.30;81.20
20827;DHT22;10574;52.508;13.236;2023-06-10T15:19:54;28.30;79.50
20827;DHT22;10574;52.508;13.236;2023-06-10T15:22:22;28.10;79.80
20827;DHT22;10574;52.508;13.236;2023-06-10T15:24:50;27.80;80.20
20827;DHT22;10574;52.508;13.236;2023-06-10T15:27:17;27.80;79.00
20827;DHT22;10574;52.508;13.236;2023-06-10T15:29:45;27.90;77.70
20827;DHT22;10574;52.508;13.236;2023-06-10T15:32:13;28.00;78.70
20827;DHT22;10574;52.508;13.236;2023-06-10T15:34:40;28.30;77.50
20827;DHT22;10574;52.508;13.236;2023-06-10T15:37:08;28.40;75.40
20827;DHT22;10574;52.508;13.236;2023-06-10T15:39:36;28.20;75.20
20827;DHT22;10574;52.508;13.236;2023-06-10T15:42:04;28.20;76.20
20827;DHT22;10574;52.508;13.236;2023-06-10T15:44:31;28.20;74.70
20827;DHT22;10574;52.508;13.236;2023-06-10T15:46:59;28.00;76.90
20827;DHT22;10574;52.508;13.236;2023-06-10T15:49:27;28.10;75.50